sensor_id;sensor_type;location;lat;lon;timestamp;P1;durP1;ratioP1;P2;durP2;ratioP2
34060;SDS011;20336;-33.424;-70.638;2024-03-25T00:00:45;8.63;;;2.03;;
34060;SDS011;20336;-33.424;-70.638;2024-03-25T00:03:12;7.75;;;2.22;;
34060;SDS011;20336;-33.424;-70.638;2024-03-25T00:05:39;9.07;;;2.00;;
34060;SDS011;20336;-33.424;-70.638;2024-03-25T00:08:06;7.47;;;2.13;;
34060;SDS011;20336;-33.424;-70.638;2024-03-25T00:10:33;8.77;;;1.48;;
34060;SDS011;20336;-33.424;-70.638;2024-03-25T00:13:02;8.98;;;2.08;;
34060;SDS011;20336;-33.424;-70.638;2024-03-25T00:15:29;5.47;;;1.80;;
34060;SDS011;20336;-33.424;-70.638;2024-03-25T00:17:56;8.20;;;2.00;;
34060;SDS011;20336;-33.424;-70.638;2024-03-25T00:20:23;8.93;;;2.20;;
34060;SDS011;20336;-33.424;-70.638;2024-03-25T00:22:50;6.00;;;2.00;;
34060;SDS011;20336;-33.424;-70.638;2024-03-25T00:25:18;5.90;;;2.00;;
34060;SDS011;20336;-33.424;-70.638;2024-03-25T00:27:45;6.72;;;1.92;;
34060;SDS011;20336;-33.424;-70.638;2024-03-25T00:30:12;9.18;;;2.13;;
34060;SDS011;20336;-33.424;-70.638;2024-03-25T00:32:39;4.20;;;1.88;;
34060;SDS011;20336;-33.424;-70.638;2024-03-25T00:35:06;7.95;;;2.05;;
34060;SDS011;20336;-33.424;-70.638;2024-03-25T00:37:33;10.95;;;2.20;;
34060;SDS011;20336;-33.424;-70.638;2024-03-25T00:40:00;9.73;;;2.20;;
34060;SDS011;20336;-33.424;-70.638;2024-03-25T00:42:26;10.90;;;2.22;;
34060;SDS011;20336;-33.424;-70.638;2024-03-25T00:44:53;5.75;;;1.88;;
34060;SDS011;20336;-33.424;-70.638;2024-03-25T00:47:20;6.15;;;1.77;;
34060;SDS011;20336;-33.424;-70.638;2024-03-25T00:49:47;8.52;;;2.03;;
34060;SDS011;20336;-33.424;-70.638;2024-03-25T00:52:14;6.40;;;2.00;;
34060;SDS011;20336;-33.424;-70.638;2024-03-25T00:54:41;7.95;;;2.35;;
34060;SDS011;20336;-33.424;-70.638;2024-03-25T00:57:08;8.82;;;2.03;;
34060;SDS011;20336;-33.424;-70.638;2024-03-25T00:59:37;8.25;;;2.47;;
34060;SDS011;20336;-33.424;-70.638;2024-03-25T01:02:04;12.02;;;2.10;;
34060;SDS011;20336;-33.424;-70.638;2024-03-25T01:04:31;8.32;;;2.60;;
34060;SDS011;20336;-33.424;-70.638;2024-03-25T01:06:58;7.95;;;2.15;;
34060;SDS011;20336;-33.424;-70.638;2024-03-25T01:09:25;13.45;;;2.20;;
34060;SDS011;20336;-33.424;-70.638;2024-03-25T01:11:52;6.13;;;2.40;;
34060;SDS011;20336;-33.424;-70.638;2024-03-25T01:14:18;7.93;;;2.30;;
34060;SDS011;20336;-33.424;-70.638;2024-03-25T01:16:45;6.93;;;2.13;;
34060;SDS011;20336;-33.424;-70.638;2024-03-25T01:19:12;9.32;;;2.50;;
34060;SDS011;20336;-33.424;-70.638;2024-03-25T01:21:39;7.70;;;2.30;;
34060;SDS011;20336;-33.424;-70.638;2024-03-25T01:24:06;8.95;;;2.35;;
34060;SDS011;20336;-33.424;-70.638;2024-03-25T01:26:33;6.63;;;2.10;;
34060;SDS011;20336;-33.424;-70.638;2024-03-25T01:29:00;9.32;;;2.67;;
34060;SDS011;20336;-33.424;-70.638;2024-03-25T01:31:27;7.35;;;2.28;;
34060;SDS011;20336;-33.424;-70.638;2024-03-25T01:33:54;5.28;;;2.10;;
34060;SDS011;20336;-33.424;-70.638;2024-03-25T01:36:21;10.40;;;2.15;;
34060;SDS011;20336;-33.424;-70.638;2024-03-25T01:38:47;8.93;;;2.60;;
34060;SDS011;20336;-33.424;-70.638;2024-03-25T01:41:14;7.43;;;2.40;;
34060;SDS011;20336;-33.424;-70.638;2024-03-25T01:43:48;5.57;;;2.10;;
34060;SDS011;20336;-33.424;-70.638;2024-03-25T01:46:15;9.52;;;2.28;;
34060;SDS011;20336;-33.424;-70.638;2024-03-25T01:48:43;7.72;;;2.25;;
34060;SDS011;20336;-33.424;-70.638;2024-03-25T01:51:14;9.07;;;2.50;;
34060;SDS011;20336;-33.424;-70.638;2024-03-25T01:53:43;5.60;;;2.05;;
34060;SDS011;20336;-33.424;-70.638;2024-03-25T01:56:12;8.80;;;2.10;;
34060;SDS011;20336;-33.424;-70.638;2024-03-25T01:58:40;8.57;;;2.40;;
34060;SDS011;20336;-33.424;-70.638;2024-03-25T02:01:07;9.80;;;2.30;;
34060;SDS011;20336;-33.424;-70.638;2024-03-25T02:03:39;6.78;;;2.22;;
34060;SDS011;20336;-33.424;-70.638;2024-03-25T02:06:07;6.43;;;2.05;;
34060;SDS011;20336;-33.424;-70.638;2024-03-25T02:08:36;8.10;;;2.13;;
34060;SDS011;20336;-33.424;-70.638;2024-03-25T02:11:03;7.55;;;2.30;;
34060;SDS011;20336;-33.424;-70.638;2024-03-25T02:13:30;6.78;;;2.03;;
34060;SDS011;20336;-33.424;-70.638;2024-03-25T02:15:57;5.40;;;2.20;;
34060;SDS011;20336;-33.424;-70.638;2024-03-25T02:18:24;5.28;;;1.80;;
34060;SDS011;20336;-33.424;-70.638;2024-03-25T02:20:51;3.53;;;1.67;;
34060;SDS011;20336;-33.424;-70.638;2024-03-25T02:23:18;5.82;;;2.10;;
34060;SDS011;20336;-33.424;-70.638;2024-03-25T02:25:51;5.57;;;1.77;;
34060;SDS011;20336;-33.424;-70.638;2024-03-25T02:28:19;4.68;;;2.13;;
34060;SDS011;20336;-33.424;-70.638;2024-03-25T02:30:46;4.53;;;1.80;;
34060;SDS011;20336;-33.424;-70.638;2024-03-25T02:33:13;7.82;;;1.77;;
34060;SDS011;20336;-33.424;-70.638;2024-03-25T02:35:41;6.50;;;2.00;;
34060;SDS011;20336;-33.424;-70.638;2024-03-25T02:38:08;7.43;;;2.15;;
34060;SDS011;20336;-33.424;-70.638;2024-03-25T02:40:36;5.97;;;1.65;;
34060;SDS011;20336;-33.424;-70.638;2024-03-25T02:43:03;7.68;;;1.83;;
34060;SDS011;20336;-33.424;-70.638;2024-03-25T02:45:32;3.30;;;1.67;;
34060;SDS011;20336;-33.424;-70.638;2024-03-25T02:47:59;5.82;;;1.90;;
34060;SDS011;20336;-33.424;-70.638;2024-03-25T02:50:26;8.35;;;1.88;;
34060;SDS011;20336;-33.424;-70.638;2024-03-25T02:52:53;4.80;;;1.65;;
34060;SDS011;20336;-33.424;-70.638;2024-03-25T02:55:20;6.72;;;2.00;;
34060;SDS011;20336;-33.424;-70.638;2024-03-25T02:57:47;5.60;;;2.15;;
34060;SDS011;20336;-33.424;-70.638;2024-03-25T03:00:14;6.32;;;1.63;;
34060;SDS011;20336;-33.424;-70.638;2024-03-25T03:02:41;3.58;;;1.60;;
34060;SDS011;20336;-33.424;-70.638;2024-03-25T03:05:08;7.78;;;1.90;;
34060;SDS011;20336;-33.424;-70.638;2024-03-25T03:07:35;5.78;;;1.75;;
34060;SDS011;20336;-33.424;-70.638;2024-03-25T03:10:02;6.32;;;1.80;;
34060;SDS011;20336;-33.424;-70.638;2024-03-25T03:12:29;5.57;;;1.70;;
34060;SDS011;20336;-33.424;-70.638;2024-03-25T03:14:56;7.50;;;1.90;;
34060;SDS011;20336;-33.424;-70.638;2024-03-25T03:17:22;4.88;;;1.88;;
34060;SDS011;20336;-33.424;-70.638;2024-03-25T03:19:49;10.13;;;2.03;;
34060;SDS011;20336;-33.424;-70.638;2024-03-25T03:22:16;7.95;;;2.22;;
34060;SDS011;20336;-33.424;-70.638;2024-03-25T03:24:43;7.57;;;1.88;;
34060;SDS011;20336;-33.424;-70.638;2024-03-25T03:27:10;6.55;;;1.90;;
34060;SDS011;20336;-33.424;-70.638;2024-03-25T03:29:37;5.25;;;1.77;;
34060;SDS011;20336;-33.424;-70.638;2024-03-25T03:32:04;5.20;;;1.83;;
34060;SDS011;20336;-33.424;-70.638;2024-03-25T03:34:31;4.85;;;1.73;;
34060;SDS011;20336;-33.424;-70.638;2024-03-25T03:36:58;5.35;;;1.67;;
34060;SDS011;20336;-33.424;-70.638;2024-03-25T03:39:25;6.40;;;2.10;;
34060;SDS011;20336;-33.424;-70.638;2024-03-25T03:41:51;4.35;;;1.83;;
34060;SDS011;20336;-33.424;-70.638;2024-03-25T03:44:18;4.43;;;1.70;;
34060;SDS011;20336;-33.424;-70.638;2024-03-25T03:46:45;6.82;;;1.83;;
34060;SDS011;20336;-33.424;-70.638;2024-03-25T03:49:12;7.40;;;1.75;;
34060;SDS011;20336;-33.424;-70.638;2024-03-25T03:51:39;7.10;;;1.90;;
34060;SDS011;20336;-33.424;-70.638;2024-03-25T03:54:06;7.65;;;2.00;;
34060;SDS011;20336;-33.424;-70.638;2024-03-25T03:56:32;7.95;;;2.30;;
34060;SDS011;20336;-33.424;-70.638;2024-03-25T03:58:59;5.40;;;2.15;;
34060;SDS011;20336;-33.424;-70.638;2024-03-25T04:01:26;7.88;;;2.15;;
34060;SDS011;20336;-33.424;-70.638;2024-03-25T04:03:54;5.97;;;1.90;;
34060;SDS011;20336;-33.424;-70.638;2024-03-25T04:06:20;7.95;;;2.17;;
34060;SDS011;20336;-33.424;-70.638;2024-03-25T04:08:47;6.10;;;2.28;;
34060;SDS011;20336;-33.424;-70.638;2024-03-25T04:11:14;8.98;;;2.55;;
34060;SDS011;20336;-33.424;-70.638;2024-03-25T04:13:41;5.18;;;2.20;;
34060;SDS011;20336;-33.424;-70.638;2024-03-25T04:16:08;9.10;;;1.83;;
34060;SDS011;20336;-33.424;-70.638;2024-03-25T04:18:36;5.25;;;2.15;;
34060;SDS011;20336;-33.424;-70.638;2024-03-25T04:21:03;8.77;;;2.53;;
34060;SDS011;20336;-33.424;-70.638;2024-03-25T04:23:30;4.38;;;2.05;;
34060;SDS011;20336;-33.424;-70.638;2024-03-25T04:26:00;8.70;;;2.15;;
34060;SDS011;20336;-33.424;-70.638;2024-03-25T04:28:27;6.18;;;1.80;;
34060;SDS011;20336;-33.424;-70.638;2024-03-25T04:30:54;10.32;;;2.10;;
34060;SDS011;20336;-33.424;-70.638;2024-03-25T04:33:21;6.78;;;1.88;;
34060;SDS011;20336;-33.424;-70.638;2024-03-25T04:35:48;3.95;;;1.65;;
34060;SDS011;20336;-33.424;-70.638;2024-03-25T04:38:18;4.65;;;1.90;;
34060;SDS011;20336;-33.424;-70.638;2024-03-25T04:40:44;7.45;;;1.98;;
34060;SDS011;20336;-33.424;-70.638;2024-03-25T04:43:11;4.68;;;1.83;;
34060;SDS011;20336;-33.424;-70.638;2024-03-25T04:45:39;7.47;;;1.80;;
34060;SDS011;20336;-33.424;-70.638;2024-03-25T04:48:06;4.10;;;2.03;;
34060;SDS011;20336;-33.424;-70.638;2024-03-25T04:50:37;5.80;;;1.60;;
34060;SDS011;20336;-33.424;-70.638;2024-03-25T04:53:03;8.75;;;1.50;;
34060;SDS011;20336;-33.424;-70.638;2024-03-25T04:55:30;5.97;;;1.70;;
34060;SDS011;20336;-33.424;-70.638;2024-03-25T04:57:57;8.13;;;1.50;;
34060;SDS011;20336;-33.424;-70.638;2024-03-25T05:00:24;6.47;;;1.75;;
34060;SDS011;20336;-33.424;-70.638;2024-03-25T05:02:51;5.90;;;1.85;;
34060;SDS011;20336;-33.424;-70.638;2024-03-25T05:05:18;5.75;;;1.40;;
34060;SDS011;20336;-33.424;-70.638;2024-03-25T05:07:45;4.30;;;1.52;;
34060;SDS011;20336;-33.424;-70.638;2024-03-25T05:10:11;4.10;;;2.10;;
34060;SDS011;20336;-33.424;-70.638;2024-03-25T05:12:38;11.13;;;5.60;;
34060;SDS011;20336;-33.424;-70.638;2024-03-25T05:15:05;12.38;;;2.60;;
34060;SDS011;20336;-33.424;-70.638;2024-03-25T05:17:32;7.20;;;1.85;;
34060;SDS011;20336;-33.424;-70.638;2024-03-25T05:19:59;8.68;;;2.22;;
34060;SDS011;20336;-33.424;-70.638;2024-03-25T05:22:25;11.50;;;2.25;;
34060;SDS011;20336;-33.424;-70.638;2024-03-25T05:24:52;6.82;;;2.05;;
34060;SDS011;20336;-33.424;-70.638;2024-03-25T05:27:19;10.25;;;2.42;;
34060;SDS011;20336;-33.424;-70.638;2024-03-25T05:29:46;7.28;;;2.28;;
34060;SDS011;20336;-33.424;-70.638;2024-03-25T05:32:13;9.05;;;2.40;;
34060;SDS011;20336;-33.424;-70.638;2024-03-25T05:34:42;5.63;;;2.25;;
34060;SDS011;20336;-33.424;-70.638;2024-03-25T05:37:08;5.53;;;2.20;;
34060;SDS011;20336;-33.424;-70.638;2024-03-25T05:39:35;11.70;;;2.30;;
34060;SDS011;20336;-33.424;-70.638;2024-03-25T05:42:02;7.40;;;1.80;;
34060;SDS011;20336;-33.424;-70.638;2024-03-25T05:44:29;6.35;;;1.80;;
34060;SDS011;20336;-33.424;-70.638;2024-03-25T05:46:56;3.95;;;1.98;;
34060;SDS011;20336;-33.424;-70.638;2024-03-25T05:49:23;5.90;;;1.85;;
34060;SDS011;20336;-33.424;-70.638;2024-03-25T05:51:50;3.67;;;1.83;;
34060;SDS011;20336;-33.424;-70.638;2024-03-25T05:54:17;6.38;;;2.15;;
34060;SDS011;20336;-33.424;-70.638;2024-03-25T05:56:44;4.35;;;2.20;;
34060;SDS011;20336;-33.424;-70.638;2024-03-25T05:59:11;6.18;;;1.95;;
34060;SDS011;20336;-33.424;-70.638;2024-03-25T06:01:38;4.80;;;2.03;;
34060;SDS011;20336;-33.424;-70.638;2024-03-25T06:04:05;6.65;;;2.40;;
34060;SDS011;20336;-33.424;-70.638;2024-03-25T06:06:32;4.13;;;2.08;;
34060;SDS011;20336;-33.424;-70.638;2024-03-25T06:08:59;3.17;;;1.80;;
34060;SDS011;20336;-33.424;-70.638;2024-03-25T06:11:26;7.65;;;2.50;;
34060;SDS011;20336;-33.424;-70.638;2024-03-25T06:13:53;5.78;;;2.58;;
34060;SDS011;20336;-33.424;-70.638;2024-03-25T06:16:20;5.30;;;2.20;;
34060;SDS011;20336;-33.424;-70.638;2024-03-25T06:18:47;8.05;;;2.13;;
34060;SDS011;20336;-33.424;-70.638;2024-03-25T06:21:13;8.88;;;2.05;;
34060;SDS011;20336;-33.424;-70.638;2024-03-25T06:23:40;4.50;;;2.03;;
34060;SDS011;20336;-33.424;-70.638;2024-03-25T06:26:07;5.25;;;2.17;;
34060;SDS011;20336;-33.424;-70.638;2024-03-25T06:28:34;5.05;;;1.92;;
34060;SDS011;20336;-33.424;-70.638;2024-03-25T06:31:01;6.45;;;1.65;;
34060;SDS011;20336;-33.424;-70.638;2024-03-25T06:33:46;5.00;;;1.90;;
34060;SDS011;20336;-33.424;-70.638;2024-03-25T06:36:31;6.05;;;1.90;;
34060;SDS011;20336;-33.424;-70.638;2024-03-25T06:39:00;5.43;;;1.95;;
34060;SDS011;20336;-33.424;-70.638;2024-03-25T06:41:28;5.75;;;1.85;;
34060;SDS011;20336;-33.424;-70.638;2024-03-25T06:43:54;7.00;;;1.80;;
34060;SDS011;20336;-33.424;-70.638;2024-03-25T06:46:21;11.85;;;2.22;;
34060;SDS011;20336;-33.424;-70.638;2024-03-25T06:48:48;5.80;;;2.03;;
34060;SDS011;20336;-33.424;-70.638;2024-03-25T06:51:17;7.88;;;2.65;;
34060;SDS011;20336;-33.424;-70.638;2024-03-25T06:53:44;4.15;;;2.08;;
34060;SDS011;20336;-33.424;-70.638;2024-03-25T06:56:11;5.35;;;2.08;;
34060;SDS011;20336;-33.424;-70.638;2024-03-25T06:58:38;5.13;;;1.92;;
34060;SDS011;20336;-33.424;-70.638;2024-03-25T07:01:06;5.68;;;1.70;;
34060;SDS011;20336;-33.424;-70.638;2024-03-25T07:03:33;4.38;;;1.65;;
34060;SDS011;20336;-33.424;-70.638;2024-03-25T07:06:00;5.22;;;2.25;;
34060;SDS011;20336;-33.424;-70.638;2024-03-25T07:08:27;3.05;;;1.63;;
34060;SDS011;20336;-33.424;-70.638;2024-03-25T07:10:56;4.60;;;1.90;;
34060;SDS011;20336;-33.424;-70.638;2024-03-25T07:13:23;6.50;;;1.77;;
34060;SDS011;20336;-33.424;-70.638;2024-03-25T07:15:50;3.72;;;1.75;;
34060;SDS011;20336;-33.424;-70.638;2024-03-25T07:18:17;5.47;;;1.90;;
34060;SDS011;20336;-33.424;-70.638;2024-03-25T07:20:44;4.00;;;1.52;;
34060;SDS011;20336;-33.424;-70.638;2024-03-25T07:23:11;7.85;;;1.60;;
34060;SDS011;20336;-33.424;-70.638;2024-03-25T07:25:38;2.67;;;1.50;;
34060;SDS011;20336;-33.424;-70.638;2024-03-25T07:28:05;5.35;;;1.70;;
34060;SDS011;20336;-33.424;-70.638;2024-03-25T07:30:33;6.18;;;1.88;;
34060;SDS011;20336;-33.424;-70.638;2024-03-25T07:33:00;4.88;;;1.80;;
34060;SDS011;20336;-33.424;-70.638;2024-03-25T07:35:27;10.63;;;1.77;;
34060;SDS011;20336;-33.424;-70.638;2024-03-25T07:37:54;5.78;;;1.70;;
34060;SDS011;20336;-33.424;-70.638;2024-03-25T07:40:21;8.77;;;1.70;;
34060;SDS011;20336;-33.424;-70.638;2024-03-25T07:42:48;7.32;;;1.98;;
34060;SDS011;20336;-33.424;-70.638;2024-03-25T07:45:15;5.55;;;1.80;;
34060;SDS011;20336;-33.424;-70.638;2024-03-25T07:47:43;5.95;;;1.75;;
34060;SDS011;20336;-33.424;-70.638;2024-03-25T07:50:10;4.53;;;1.98;;
34060;SDS011;20336;-33.424;-70.638;2024-03-25T07:52:36;5.22;;;1.42;;
34060;SDS011;20336;-33.424;-70.638;2024-03-25T07:55:06;4.63;;;1.70;;
34060;SDS011;20336;-33.424;-70.638;2024-03-25T07:57:33;3.22;;;1.55;;
34060;SDS011;20336;-33.424;-70.638;2024-03-25T08:00:00;5.57;;;1.70;;
34060;SDS011;20336;-33.424;-70.638;2024-03-25T08:02:30;3.42;;;1.40;;
34060;SDS011;20336;-33.424;-70.638;2024-03-25T08:04:57;5.82;;;1.73;;
34060;SDS011;20336;-33.424;-70.638;2024-03-25T08:07:24;7.60;;;1.60;;
34060;SDS011;20336;-33.424;-70.638;2024-03-25T08:09:51;4.30;;;1.52;;
34060;SDS011;20336;-33.424;-70.638;2024-03-25T08:12:18;3.50;;;1.60;;
34060;SDS011;20336;-33.424;-70.638;2024-03-25T08:14:45;8.35;;;1.92;;
34060;SDS011;20336;-33.424;-70.638;2024-03-25T08:17:12;10.73;;;1.85;;
34060;SDS011;20336;-33.424;-70.638;2024-03-25T08:19:38;5.45;;;1.67;;
34060;SDS011;20336;-33.424;-70.638;2024-03-25T08:22:05;3.22;;;1.58;;
34060;SDS011;20336;-33.424;-70.638;2024-03-25T08:24:32;5.80;;;1.80;;
34060;SDS011;20336;-33.424;-70.638;2024-03-25T08:26:59;5.18;;;1.90;;
34060;SDS011;20336;-33.424;-70.638;2024-03-25T08:29:26;5.55;;;2.05;;
34060;SDS011;20336;-33.424;-70.638;2024-03-25T08:31:53;3.95;;;1.65;;
34060;SDS011;20336;-33.424;-70.638;2024-03-25T08:34:20;3.95;;;1.90;;
34060;SDS011;20336;-33.424;-70.638;2024-03-25T08:36:47;4.57;;;1.88;;
34060;SDS011;20336;-33.424;-70.638;2024-03-25T08:39:14;7.47;;;1.80;;
34060;SDS011;20336;-33.424;-70.638;2024-03-25T08:41:41;5.55;;;1.65;;
34060;SDS011;20336;-33.424;-70.638;2024-03-25T08:44:08;7.30;;;1.90;;
34060;SDS011;20336;-33.424;-70.638;2024-03-25T08:46:34;4.43;;;1.80;;
34060;SDS011;20336;-33.424;-70.638;2024-03-25T08:49:03;3.95;;;1.80;;
34060;SDS011;20336;-33.424;-70.638;2024-03-25T08:51:30;3.55;;;1.60;;
34060;SDS011;20336;-33.424;-70.638;2024-03-25T08:53:56;5.10;;;2.00;;
34060;SDS011;20336;-33.424;-70.638;2024-03-25T08:56:23;6.50;;;1.80;;
34060;SDS011;20336;-33.424;-70.638;2024-03-25T08:58:50;5.38;;;1.88;;
34060;SDS011;20336;-33.424;-70.638;2024-03-25T09:01:20;5.43;;;1.80;;
34060;SDS011;20336;-33.424;-70.638;2024-03-25T09:03:48;8.25;;;1.90;;
34060;SDS011;20336;-33.424;-70.638;2024-03-25T09:06:15;6.00;;;1.80;;
34060;SDS011;20336;-33.424;-70.638;2024-03-25T09:08:42;6.13;;;1.90;;
34060;SDS011;20336;-33.424;-70.638;2024-03-25T09:11:27;5.68;;;1.98;;
34060;SDS011;20336;-33.424;-70.638;2024-03-25T09:13:54;4.90;;;2.22;;
34060;SDS011;20336;-33.424;-70.638;2024-03-25T09:16:21;3.80;;;1.90;;
34060;SDS011;20336;-33.424;-70.638;2024-03-25T09:18:47;6.55;;;1.90;;
34060;SDS011;20336;-33.424;-70.638;2024-03-25T09:21:14;5.05;;;2.40;;
34060;SDS011;20336;-33.424;-70.638;2024-03-25T09:23:41;6.65;;;2.13;;
34060;SDS011;20336;-33.424;-70.638;2024-03-25T09:26:08;4.53;;;2.03;;
34060;SDS011;20336;-33.424;-70.638;2024-03-25T09:28:36;9.38;;;2.30;;
34060;SDS011;20336;-33.424;-70.638;2024-03-25T09:31:03;7.63;;;2.10;;
34060;SDS011;20336;-33.424;-70.638;2024-03-25T09:33:31;5.85;;;2.35;;
34060;SDS011;20336;-33.424;-70.638;2024-03-25T09:35:58;6.13;;;2.35;;
34060;SDS011;20336;-33.424;-70.638;2024-03-25T09:38:25;6.45;;;2.35;;
34060;SDS011;20336;-33.424;-70.638;2024-03-25T09:40:52;7.32;;;2.75;;
34060;SDS011;20336;-33.424;-70.638;2024-03-25T09:43:27;6.10;;;2.30;;
34060;SDS011;20336;-33.424;-70.638;2024-03-25T09:45:59;4.75;;;2.20;;
34060;SDS011;20336;-33.424;-70.638;2024-03-25T09:48:25;8.30;;;2.85;;
34060;SDS011;20336;-33.424;-70.638;2024-03-25T09:50:52;6.78;;;2.60;;
34060;SDS011;20336;-33.424;-70.638;2024-03-25T09:53:20;6.40;;;2.30;;
34060;SDS011;20336;-33.424;-70.638;2024-03-25T09:55:47;8.10;;;2.50;;
34060;SDS011;20336;-33.424;-70.638;2024-03-25T09:58:17;4.93;;;2.22;;
34060;SDS011;20336;-33.424;-70.638;2024-03-25T10:00:45;8.00;;;2.25;;
34060;SDS011;20336;-33.424;-70.638;2024-03-25T10:03:12;6.88;;;2.72;;
34060;SDS011;20336;-33.424;-70.638;2024-03-25T10:05:39;6.75;;;2.40;;
34060;SDS011;20336;-33.424;-70.638;2024-03-25T10:08:07;11.10;;;3.00;;
34060;SDS011;20336;-33.424;-70.638;2024-03-25T10:10:35;10.55;;;3.00;;
34060;SDS011;20336;-33.424;-70.638;2024-03-25T10:13:05;10.18;;;2.63;;
34060;SDS011;20336;-33.424;-70.638;2024-03-25T10:15:32;9.82;;;3.22;;
34060;SDS011;20336;-33.424;-70.638;2024-03-25T10:17:59;12.82;;;2.50;;
34060;SDS011;20336;-33.424;-70.638;2024-03-25T10:20:25;6.25;;;2.75;;
34060;SDS011;20336;-33.424;-70.638;2024-03-25T10:22:52;8.18;;;2.53;;
34060;SDS011;20336;-33.424;-70.638;2024-03-25T10:27:53;10.13;;;2.42;;
34060;SDS011;20336;-33.424;-70.638;2024-03-25T10:30:20;6.97;;;2.40;;
34060;SDS011;20336;-33.424;-70.638;2024-03-25T10:33:08;28.42;;;3.60;;
34060;SDS011;20336;-33.424;-70.638;2024-03-25T10:35:35;9.77;;;2.63;;
34060;SDS011;20336;-33.424;-70.638;2024-03-25T10:38:03;7.20;;;2.00;;
34060;SDS011;20336;-33.424;-70.638;2024-03-25T10:40:31;6.55;;;2.30;;
34060;SDS011;20336;-33.424;-70.638;2024-03-25T10:43:02;7.72;;;2.60;;
34060;SDS011;20336;-33.424;-70.638;2024-03-25T10:45:33;7.45;;;2.80;;
34060;SDS011;20336;-33.424;-70.638;2024-03-25T10:48:02;7.50;;;2.75;;
34060;SDS011;20336;-33.424;-70.638;2024-03-25T10:50:30;8.13;;;2.63;;
34060;SDS011;20336;-33.424;-70.638;2024-03-25T10:52:57;13.80;;;2.78;;
34060;SDS011;20336;-33.424;-70.638;2024-03-25T10:55:24;8.75;;;2.40;;
34060;SDS011;20336;-33.424;-70.638;2024-03-25T10:57:52;9.57;;;3.22;;
34060;SDS011;20336;-33.424;-70.638;2024-03-25T11:00:22;15.20;;;2.83;;
34060;SDS011;20336;-33.424;-70.638;2024-03-25T11:02:49;4.20;;;2.13;;
34060;SDS011;20336;-33.424;-70.638;2024-03-25T11:05:16;10.90;;;2.90;;
34060;SDS011;20336;-33.424;-70.638;2024-03-25T11:07:43;8.40;;;2.45;;
34060;SDS011;20336;-33.424;-70.638;2024-03-25T11:10:11;10.52;;;3.20;;
34060;SDS011;20336;-33.424;-70.638;2024-03-25T11:12:40;12.93;;;3.28;;
34060;SDS011;20336;-33.424;-70.638;2024-03-25T11:15:07;10.98;;;2.70;;
34060;SDS011;20336;-33.424;-70.638;2024-03-25T11:17:35;9.30;;;2.47;;
34060;SDS011;20336;-33.424;-70.638;2024-03-25T11:20:15;7.13;;;2.70;;
34060;SDS011;20336;-33.424;-70.638;2024-03-25T11:22:51;5.97;;;2.25;;
34060;SDS011;20336;-33.424;-70.638;2024-03-25T11:25:20;9.18;;;2.80;;
34060;SDS011;20336;-33.424;-70.638;2024-03-25T11:27:47;5.60;;;2.30;;
34060;SDS011;20336;-33.424;-70.638;2024-03-25T11:30:14;10.05;;;2.30;;
34060;SDS011;20336;-33.424;-70.638;2024-03-25T11:33:02;9.80;;;2.20;;
34060;SDS011;20336;-33.424;-70.638;2024-03-25T11:35:40;7.35;;;2.20;;
34060;SDS011;20336;-33.424;-70.638;2024-03-25T11:38:07;8.05;;;2.42;;
34060;SDS011;20336;-33.424;-70.638;2024-03-25T11:40:34;11.48;;;2.35;;
34060;SDS011;20336;-33.424;-70.638;2024-03-25T11:43:02;5.90;;;2.65;;
34060;SDS011;20336;-33.424;-70.638;2024-03-25T11:45:30;13.52;;;2.90;;
34060;SDS011;20336;-33.424;-70.638;2024-03-25T11:47:58;9.07;;;2.47;;
34060;SDS011;20336;-33.424;-70.638;2024-03-25T11:50:24;10.20;;;2.95;;
34060;SDS011;20336;-33.424;-70.638;2024-03-25T11:52:51;7.18;;;2.40;;
34060;SDS011;20336;-33.424;-70.638;2024-03-25T11:55:18;6.65;;;2.55;;
34060;SDS011;20336;-33.424;-70.638;2024-03-25T11:57:45;4.35;;;1.80;;
34060;SDS011;20336;-33.424;-70.638;2024-03-25T12:00:12;9.48;;;2.15;;
34060;SDS011;20336;-33.424;-70.638;2024-03-25T12:02:45;11.18;;;2.58;;
34060;SDS011;20336;-33.424;-70.638;2024-03-25T12:05:12;5.72;;;2.08;;
34060;SDS011;20336;-33.424;-70.638;2024-03-25T12:07:38;6.13;;;2.40;;
34060;SDS011;20336;-33.424;-70.638;2024-03-25T12:10:05;8.88;;;2.50;;
34060;SDS011;20336;-33.424;-70.638;2024-03-25T12:12:50;8.85;;;3.00;;
34060;SDS011;20336;-33.424;-70.638;2024-03-25T12:15:17;5.93;;;2.33;;
34060;SDS011;20336;-33.424;-70.638;2024-03-25T12:17:44;7.25;;;2.20;;
34060;SDS011;20336;-33.424;-70.638;2024-03-25T12:20:11;7.05;;;2.35;;
34060;SDS011;20336;-33.424;-70.638;2024-03-25T12:22:39;11.43;;;2.45;;
34060;SDS011;20336;-33.424;-70.638;2024-03-25T12:25:07;6.40;;;1.90;;
34060;SDS011;20336;-33.424;-70.638;2024-03-25T12:27:36;12.85;;;2.50;;
34060;SDS011;20336;-33.424;-70.638;2024-03-25T12:32:31;5.35;;;2.20;;
34060;SDS011;20336;-33.424;-70.638;2024-03-25T12:34:58;5.85;;;2.33;;
34060;SDS011;20336;-33.424;-70.638;2024-03-25T12:37:28;7.50;;;2.20;;
34060;SDS011;20336;-33.424;-70.638;2024-03-25T12:39:54;5.85;;;2.47;;
34060;SDS011;20336;-33.424;-70.638;2024-03-25T12:42:23;10.07;;;2.35;;
34060;SDS011;20336;-33.424;-70.638;2024-03-25T12:44:53;8.82;;;2.53;;
34060;SDS011;20336;-33.424;-70.638;2024-03-25T12:47:20;3.58;;;2.20;;
34060;SDS011;20336;-33.424;-70.638;2024-03-25T12:49:47;6.65;;;2.33;;
34060;SDS011;20336;-33.424;-70.638;2024-03-25T12:52:13;8.80;;;2.58;;
34060;SDS011;20336;-33.424;-70.638;2024-03-25T12:54:40;12.80;;;2.85;;
34060;SDS011;20336;-33.424;-70.638;2024-03-25T12:57:07;7.57;;;2.42;;
34060;SDS011;20336;-33.424;-70.638;2024-03-25T12:59:34;9.75;;;2.67;;
34060;SDS011;20336;-33.424;-70.638;2024-03-25T13:02:01;4.90;;;2.20;;
34060;SDS011;20336;-33.424;-70.638;2024-03-25T13:04:28;7.75;;;2.75;;
34060;SDS011;20336;-33.424;-70.638;2024-03-25T13:06:55;11.40;;;2.72;;
34060;SDS011;20336;-33.424;-70.638;2024-03-25T13:09:22;7.30;;;2.50;;
34060;SDS011;20336;-33.424;-70.638;2024-03-25T13:11:49;6.22;;;2.30;;
34060;SDS011;20336;-33.424;-70.638;2024-03-25T13:14:15;39.50;;;5.13;;
34060;SDS011;20336;-33.424;-70.638;2024-03-25T13:16:42;10.15;;;2.88;;
34060;SDS011;20336;-33.424;-70.638;2024-03-25T13:19:09;11.77;;;3.72;;
34060;SDS011;20336;-33.424;-70.638;2024-03-25T13:21:36;10.38;;;2.97;;
34060;SDS011;20336;-33.424;-70.638;2024-03-25T13:24:03;9.88;;;2.70;;
34060;SDS011;20336;-33.424;-70.638;2024-03-25T13:26:30;14.23;;;3.45;;
34060;SDS011;20336;-33.424;-70.638;2024-03-25T13:28:56;14.88;;;3.38;;
34060;SDS011;20336;-33.424;-70.638;2024-03-25T13:31:24;13.15;;;3.03;;
34060;SDS011;20336;-33.424;-70.638;2024-03-25T13:33:51;10.23;;;3.20;;
34060;SDS011;20336;-33.424;-70.638;2024-03-25T13:36:18;10.00;;;2.63;;
34060;SDS011;20336;-33.424;-70.638;2024-03-25T13:38:45;14.70;;;2.72;;
34060;SDS011;20336;-33.424;-70.638;2024-03-25T13:41:11;10.68;;;2.97;;
34060;SDS011;20336;-33.424;-70.638;2024-03-25T13:43:53;13.15;;;3.40;;
34060;SDS011;20336;-33.424;-70.638;2024-03-25T13:46:20;12.30;;;3.70;;
34060;SDS011;20336;-33.424;-70.638;2024-03-25T13:48:47;9.18;;;2.90;;
34060;SDS011;20336;-33.424;-70.638;2024-03-25T13:51:14;11.55;;;3.20;;
34060;SDS011;20336;-33.424;-70.638;2024-03-25T13:53:41;12.15;;;3.35;;
34060;SDS011;20336;-33.424;-70.638;2024-03-25T13:56:08;14.30;;;3.50;;
34060;SDS011;20336;-33.424;-70.638;2024-03-25T13:58:35;10.95;;;3.30;;
34060;SDS011;20336;-33.424;-70.638;2024-03-25T14:01:02;8.95;;;3.20;;
34060;SDS011;20336;-33.424;-70.638;2024-03-25T14:03:29;13.55;;;3.60;;
34060;SDS011;20336;-33.424;-70.638;2024-03-25T14:05:56;8.07;;;3.60;;
34060;SDS011;20336;-33.424;-70.638;2024-03-25T14:08:22;12.73;;;3.28;;
34060;SDS011;20336;-33.424;-70.638;2024-03-25T14:10:58;8.20;;;3.05;;
34060;SDS011;20336;-33.424;-70.638;2024-03-25T14:13:26;10.98;;;3.50;;